sensor_id;sensor_type;location;lat;lon;timestamp;P1;durP1;ratioP1;P2;durP2;ratioP2
59300;SDS011;45073;52.740;6.784;2024-02-21T00:02:20;10.67;;;4.67;;
59300;SDS011;45073;52.740;6.784;2024-02-21T00:04:46;12.68;;;6.20;;
59300;SDS011;45073;52.740;6.784;2024-02-21T00:07:12;12.40;;;3.72;;
59300;SDS011;45073;52.740;6.784;2024-02-21T00:09:37;16.85;;;5.95;;
59300;SDS011;45073;52.740;6.784;2024-02-21T00:12:03;13.20;;;4.75;;
59300;SDS011;45073;52.740;6.784;2024-02-21T00:14:30;21.75;;;6.90;;
59300;SDS011;45073;52.740;6.784;2024-02-21T00:16:56;21.70;;;7.63;;
59300;SDS011;45073;52.740;6.784;2024-02-21T00:19:21;17.88;;;6.80;;
59300;SDS011;45073;52.740;6.784;2024-02-21T00:21:47;19.30;;;6.80;;
59300;SDS011;45073;52.740;6.784;2024-02-21T00:24:12;13.70;;;3.97;;
59300;SDS011;45073;52.740;6.784;2024-02-21T00:26:38;12.95;;;5.00;;
59300;SDS011;45073;52.740;6.784;2024-02-21T00:29:03;15.07;;;6.25;;
59300;SDS011;45073;52.740;6.784;2024-02-21T00:31:30;15.77;;;6.60;;
59300;SDS011;45073;52.740;6.784;2024-02-21T00:33:56;14.15;;;6.47;;
59300;SDS011;45073;52.740;6.784;2024-02-21T00:36:21;18.42;;;6.40;;
59300;SDS011;45073;52.740;6.784;2024-02-21T00:38:47;14.25;;;5.75;;
59300;SDS011;45073;52.740;6.784;2024-02-21T00:41:12;10.18;;;4.57;;
59300;SDS011;45073;52.740;6.784;2024-02-21T00:43:38;16.38;;;5.35;;
59300;SDS011;45073;52.740;6.784;2024-02-21T00:46:05;14.07;;;5.90;;
59300;SDS011;45073;52.740;6.784;2024-02-21T00:48:31;11.07;;;4.40;;
59300;SDS011;45073;52.740;6.784;2024-02-21T00:50:56;18.63;;;5.90;;
59300;SDS011;45073;52.740;6.784;2024-02-21T00:53:23;11.40;;;5.25;;
59300;SDS011;45073;52.740;6.784;2024-02-21T00:55:48;19.33;;;6.25;;
59300;SDS011;45073;52.740;6.784;2024-02-21T00:58:14;16.77;;;6.05;;
59300;SDS011;45073;52.740;6.784;2024-02-21T01:00:40;13.52;;;5.90;;
59300;SDS011;45073;52.740;6.784;2024-02-21T01:03:05;11.75;;;5.60;;
59300;SDS011;45073;52.740;6.784;2024-02-21T01:05:31;16.58;;;6.72;;
59300;SDS011;45073;52.740;6.784;2024-02-21T01:07:56;19.13;;;5.68;;
59300;SDS011;45073;52.740;6.784;2024-02-21T01:10:22;15.77;;;6.78;;
59300;SDS011;45073;52.740;6.784;2024-02-21T01:12:48;14.65;;;6.68;;
59300;SDS011;45073;52.740;6.784;2024-02-21T01:15:14;21.15;;;7.78;;
59300;SDS011;45073;52.740;6.784;2024-02-21T01:17:39;16.33;;;5.35;;
59300;SDS011;45073;52.740;6.784;2024-02-21T01:20:06;13.85;;;6.50;;
59300;SDS011;45073;52.740;6.784;2024-02-21T01:22:32;13.73;;;5.22;;
59300;SDS011;45073;52.740;6.784;2024-02-21T01:24:58;13.68;;;5.38;;
59300;SDS011;45073;52.740;6.784;2024-02-21T01:27:23;15.00;;;6.88;;
59300;SDS011;45073;52.740;6.784;2024-02-21T01:29:49;8.98;;;3.60;;
59300;SDS011;45073;52.740;6.784;2024-02-21T01:32:15;20.67;;;5.93;;
59300;SDS011;45073;52.740;6.784;2024-02-21T01:34:41;13.38;;;4.45;;
59300;SDS011;45073;52.740;6.784;2024-02-21T01:37:06;13.25;;;6.50;;
59300;SDS011;45073;52.740;6.784;2024-02-21T01:39:32;11.60;;;5.28;;
59300;SDS011;45073;52.740;6.784;2024-02-21T01:41:58;15.68;;;5.75;;
59300;SDS011;45073;52.740;6.784;2024-02-21T01:44:24;11.93;;;3.75;;
59300;SDS011;45073;52.740;6.784;2024-02-21T01:46:50;11.48;;;4.75;;
59300;SDS011;45073;52.740;6.784;2024-02-21T01:49:17;12.52;;;4.75;;
59300;SDS011;45073;52.740;6.784;2024-02-21T01:51:44;16.23;;;5.22;;
59300;SDS011;45073;52.740;6.784;2024-02-21T01:54:10;13.02;;;5.63;;
59300;SDS011;45073;52.740;6.784;2024-02-21T01:56:38;14.60;;;6.00;;
59300;SDS011;45073;52.740;6.784;2024-02-21T01:59:04;14.25;;;6.28;;
59300;SDS011;45073;52.740;6.784;2024-02-21T02:01:29;15.20;;;5.82;;
59300;SDS011;45073;52.740;6.784;2024-02-21T02:03:55;11.55;;;4.43;;
59300;SDS011;45073;52.740;6.784;2024-02-21T02:06:22;11.40;;;4.28;;
59300;SDS011;45073;52.740;6.784;2024-02-21T02:08:47;13.40;;;5.32;;
59300;SDS011;45073;52.740;6.784;2024-02-21T02:11:13;10.70;;;3.58;;
59300;SDS011;45073;52.740;6.784;2024-02-21T02:13:40;14.90;;;4.28;;
59300;SDS011;45073;52.740;6.784;2024-02-21T02:16:05;9.65;;;4.03;;
59300;SDS011;45073;52.740;6.784;2024-02-21T02:18:31;11.63;;;3.90;;
59300;SDS011;45073;52.740;6.784;2024-02-21T02:20:57;7.60;;;3.00;;
59300;SDS011;45073;52.740;6.784;2024-02-21T02:23:26;9.90;;;2.60;;
59300;SDS011;45073;52.740;6.784;2024-02-21T02:25:52;6.70;;;2.70;;
59300;SDS011;45073;52.740;6.784;2024-02-21T02:28:18;14.45;;;3.78;;
59300;SDS011;45073;52.740;6.784;2024-02-21T02:30:44;6.15;;;2.75;;
59300;SDS011;45073;52.740;6.784;2024-02-21T02:33:10;8.65;;;3.35;;
59300;SDS011;45073;52.740;6.784;2024-02-21T02:35:35;8.90;;;2.88;;
59300;SDS011;45073;52.740;6.784;2024-02-21T02:38:02;8.45;;;3.47;;
59300;SDS011;45073;52.740;6.784;2024-02-21T02:40:28;12.10;;;3.72;;
59300;SDS011;45073;52.740;6.784;2024-02-21T02:42:54;5.40;;;2.15;;
59300;SDS011;45073;52.740;6.784;2024-02-21T02:45:22;10.48;;;3.83;;
59300;SDS011;45073;52.740;6.784;2024-02-21T02:47:52;9.45;;;3.00;;
59300;SDS011;45073;52.740;6.784;2024-02-21T02:50:19;10.27;;;3.30;;
59300;SDS011;45073;52.740;6.784;2024-02-21T02:52:45;15.48;;;4.38;;
59300;SDS011;45073;52.740;6.784;2024-02-21T02:55:11;7.13;;;3.25;;
59300;SDS011;45073;52.740;6.784;2024-02-21T02:57:36;12.05;;;2.67;;
59300;SDS011;45073;52.740;6.784;2024-02-21T03:00:02;6.70;;;2.67;;
59300;SDS011;45073;52.740;6.784;2024-02-21T03:02:29;8.43;;;3.25;;
59300;SDS011;45073;52.740;6.784;2024-02-21T03:04:56;10.13;;;3.00;;
59300;SDS011;45073;52.740;6.784;2024-02-21T03:07:22;9.15;;;2.40;;
59300;SDS011;45073;52.740;6.784;2024-02-21T03:09:49;6.45;;;2.60;;
59300;SDS011;45073;52.740;6.784;2024-02-21T03:12:15;7.40;;;2.33;;
59300;SDS011;45073;52.740;6.784;2024-02-21T03:14:49;19.42;;;4.10;;
59300;SDS011;45073;52.740;6.784;2024-02-21T03:17:17;8.68;;;2.80;;
59300;SDS011;45073;52.740;6.784;2024-02-21T03:19:43;6.63;;;2.30;;
59300;SDS011;45073;52.740;6.784;2024-02-21T03:22:08;9.20;;;3.15;;
59300;SDS011;45073;52.740;6.784;2024-02-21T03:24:34;9.55;;;2.50;;
59300;SDS011;45073;52.740;6.784;2024-02-21T03:26:59;7.07;;;3.17;;
59300;SDS011;45073;52.740;6.784;2024-02-21T03:29:25;8.90;;;3.78;;
59300;SDS011;45073;52.740;6.784;2024-02-21T03:31:51;10.55;;;3.90;;
59300;SDS011;45073;52.740;6.784;2024-02-21T03:34:16;8.93;;;3.28;;
59300;SDS011;45073;52.740;6.784;2024-02-21T03:36:42;8.38;;;2.92;;
59300;SDS011;45073;52.740;6.784;2024-02-21T03:39:07;8.68;;;4.28;;
59300;SDS011;45073;52.740;6.784;2024-02-21T03:41:34;12.93;;;6.05;;
59300;SDS011;45073;52.740;6.784;2024-02-21T03:44:00;11.38;;;2.42;;
59300;SDS011;45073;52.740;6.784;2024-02-21T03:46:26;9.32;;;3.00;;
59300;SDS011;45073;52.740;6.784;2024-02-21T03:48:52;12.52;;;2.90;;
59300;SDS011;45073;52.740;6.784;2024-02-21T03:51:18;11.25;;;3.03;;
59300;SDS011;45073;52.740;6.784;2024-02-21T03:53:44;11.95;;;3.63;;
59300;SDS011;45073;52.740;6.784;2024-02-21T03:56:09;8.13;;;5.30;;
59300;SDS011;45073;52.740;6.784;2024-02-21T03:58:35;8.23;;;2.92;;
59300;SDS011;45073;52.740;6.784;2024-02-21T04:01:01;12.27;;;3.22;;
59300;SDS011;45073;52.740;6.784;2024-02-21T04:03:28;9.38;;;3.55;;
59300;SDS011;45073;52.740;6.784;2024-02-21T04:05:54;17.17;;;6.68;;
59300;SDS011;45073;52.740;6.784;2024-02-21T04:08:20;12.93;;;4.28;;
59300;SDS011;45073;52.740;6.784;2024-02-21T04:10:45;11.80;;;4.03;;
59300;SDS011;45073;52.740;6.784;2024-02-21T04:13:12;14.77;;;4.95;;
59300;SDS011;45073;52.740;6.784;2024-02-21T04:15:37;8.95;;;3.72;;
59300;SDS011;45073;52.740;6.784;2024-02-21T04:18:03;13.73;;;3.90;;
59300;SDS011;45073;52.740;6.784;2024-02-21T04:20:29;13.85;;;3.80;;
59300;SDS011;45073;52.740;6.784;2024-02-21T04:22:55;16.63;;;3.95;;
59300;SDS011;45073;52.740;6.784;2024-02-21T04:25:20;18.45;;;4.55;;
59300;SDS011;45073;52.740;6.784;2024-02-21T04:27:46;13.68;;;4.95;;
59300;SDS011;45073;52.740;6.784;2024-02-21T04:30:12;14.75;;;5.00;;
59300;SDS011;45073;52.740;6.784;2024-02-21T04:32:38;11.32;;;4.78;;
59300;SDS011;45073;52.740;6.784;2024-02-21T04:35:04;19.30;;;6.22;;
59300;SDS011;45073;52.740;6.784;2024-02-21T04:37:30;12.80;;;4.30;;
59300;SDS011;45073;52.740;6.784;2024-02-21T04:39:56;19.27;;;5.05;;
59300;SDS011;45073;52.740;6.784;2024-02-21T04:42:22;16.60;;;5.03;;
59300;SDS011;45073;52.740;6.784;2024-02-21T04:44:47;17.52;;;5.57;;
59300;SDS011;45073;52.740;6.784;2024-02-21T04:47:13;13.38;;;4.60;;
59300;SDS011;45073;52.740;6.784;2024-02-21T04:49:39;10.43;;;3.58;;
59300;SDS011;45073;52.740;6.784;2024-02-21T04:52:04;13.38;;;3.97;;
59300;SDS011;45073;52.740;6.784;2024-02-21T04:54:30;18.30;;;4.65;;
59300;SDS011;45073;52.740;6.784;2024-02-21T04:56:56;11.55;;;4.60;;
59300;SDS011;45073;52.740;6.784;2024-02-21T04:59:21;13.07;;;3.92;;
59300;SDS011;45073;52.740;6.784;2024-02-21T05:01:47;14.45;;;4.32;;
59300;SDS011;45073;52.740;6.784;2024-02-21T05:04:13;13.73;;;4.45;;
59300;SDS011;45073;52.740;6.784;2024-02-21T05:06:38;12.18;;;4.20;;
59300;SDS011;45073;52.740;6.784;2024-02-21T05:09:08;21.30;;;6.07;;
59300;SDS011;45073;52.740;6.784;2024-02-21T05:11:35;17.33;;;5.10;;
59300;SDS011;45073;52.740;6.784;2024-02-21T05:14:01;15.57;;;5.70;;
59300;SDS011;45073;52.740;6.784;2024-02-21T05:16:26;12.93;;;4.50;;
59300;SDS011;45073;52.740;6.784;2024-02-21T05:18:52;16.80;;;4.70;;
59300;SDS011;45073;52.740;6.784;2024-02-21T05:21:17;12.20;;;4.18;;
59300;SDS011;45073;52.740;6.784;2024-02-21T05:23:44;18.25;;;5.03;;
59300;SDS011;45073;52.740;6.784;2024-02-21T05:26:09;10.75;;;3.38;;
59300;SDS011;45073;52.740;6.784;2024-02-21T05:28:35;21.00;;;4.32;;
59300;SDS011;45073;52.740;6.784;2024-02-21T05:31:01;12.90;;;3.25;;
59300;SDS011;45073;52.740;6.784;2024-02-21T05:33:26;16.20;;;4.50;;
59300;SDS011;45073;52.740;6.784;2024-02-21T05:35:52;20.02;;;4.22;;
59300;SDS011;45073;52.740;6.784;2024-02-21T05:38:17;18.45;;;5.65;;
59300;SDS011;45073;52.740;6.784;2024-02-21T05:40:46;12.88;;;4.05;;
59300;SDS011;45073;52.740;6.784;2024-02-21T05:43:12;17.30;;;6.10;;
59300;SDS011;45073;52.740;6.784;2024-02-21T05:45:38;14.70;;;6.63;;
59300;SDS011;45073;52.740;6.784;2024-02-21T05:48:04;15.68;;;5.78;;
59300;SDS011;45073;52.740;6.784;2024-02-21T05:50:30;10.50;;;5.13;;
59300;SDS011;45073;52.740;6.784;2024-02-21T05:52:55;16.48;;;6.40;;
59300;SDS011;45073;52.740;6.784;2024-02-21T05:55:21;14.90;;;4.95;;
59300;SDS011;45073;52.740;6.784;2024-02-21T05:57:47;14.45;;;5.13;;
59300;SDS011;45073;52.740;6.784;2024-02-21T06:00:13;14.18;;;4.63;;
59300;SDS011;45073;52.740;6.784;2024-02-21T06:02:39;15.88;;;4.93;;
59300;SDS011;45073;52.740;6.784;2024-02-21T06:05:05;19.23;;;7.28;;
59300;SDS011;45073;52.740;6.784;2024-02-21T06:07:34;17.83;;;7.00;;
59300;SDS011;45073;52.740;6.784;2024-02-21T06:10:03;14.80;;;6.07;;
59300;SDS011;45073;52.740;6.784;2024-02-21T06:12:30;16.83;;;6.93;;
59300;SDS011;45073;52.740;6.784;2024-02-21T06:14:55;13.38;;;5.53;;
59300;SDS011;45073;52.740;6.784;2024-02-21T06:17:21;18.52;;;7.45;;
59300;SDS011;45073;52.740;6.784;2024-02-21T06:19:47;13.65;;;4.90;;
59300;SDS011;45073;52.740;6.784;2024-02-21T06:22:12;18.98;;;8.27;;
59300;SDS011;45073;52.740;6.784;2024-02-21T06:24:38;16.23;;;6.35;;
59300;SDS011;45073;52.740;6.784;2024-02-21T06:27:04;19.08;;;8.07;;
59300;SDS011;45073;52.740;6.784;2024-02-21T06:29:33;19.35;;;7.53;;
59300;SDS011;45073;52.740;6.784;2024-02-21T06:31:59;11.00;;;6.13;;
59300;SDS011;45073;52.740;6.784;2024-02-21T06:34:24;12.00;;;4.45;;
59300;SDS011;45073;52.740;6.784;2024-02-21T06:36:50;8.48;;;4.15;;
59300;SDS011;45073;52.740;6.784;2024-02-21T06:39:16;9.25;;;4.03;;
59300;SDS011;45073;52.740;6.784;2024-02-21T06:41:42;15.05;;;5.55;;
59300;SDS011;45073;52.740;6.784;2024-02-21T06:44:08;29.27;;;7.63;;
59300;SDS011;45073;52.740;6.784;2024-02-21T06:46:33;22.10;;;7.07;;
59300;SDS011;45073;52.740;6.784;2024-02-21T06:49:00;17.13;;;7.32;;
59300;SDS011;45073;52.740;6.784;2024-02-21T06:51:26;24.40;;;8.18;;
59300;SDS011;45073;52.740;6.784;2024-02-21T06:53:53;15.20;;;4.80;;
59300;SDS011;45073;52.740;6.784;2024-02-21T06:56:19;20.35;;;6.57;;
59300;SDS011;45073;52.740;6.784;2024-02-21T06:58:45;16.02;;;5.85;;
59300;SDS011;45073;52.740;6.784;2024-02-21T07:01:10;21.85;;;7.70;;
59300;SDS011;45073;52.740;6.784;2024-02-21T07:03:36;8.95;;;3.42;;
59300;SDS011;45073;52.740;6.784;2024-02-21T07:06:02;14.73;;;5.60;;
59300;SDS011;45073;52.740;6.784;2024-02-21T07:08:28;23.02;;;7.25;;
59300;SDS011;45073;52.740;6.784;2024-02-21T07:10:53;17.63;;;7.47;;
59300;SDS011;45073;52.740;6.784;2024-02-21T07:13:19;13.38;;;6.63;;
59300;SDS011;45073;52.740;6.784;2024-02-21T07:15:46;15.98;;;7.03;;
59300;SDS011;45073;52.740;6.784;2024-02-21T07:18:12;15.50;;;6.25;;
59300;SDS011;45073;52.740;6.784;2024-02-21T07:20:38;20.00;;;7.63;;
59300;SDS011;45073;52.740;6.784;2024-02-21T07:23:06;16.75;;;6.78;;
59300;SDS011;45073;52.740;6.784;2024-02-21T07:25:32;22.50;;;8.57;;
59300;SDS011;45073;52.740;6.784;2024-02-21T07:27:58;16.48;;;7.53;;
59300;SDS011;45073;52.740;6.784;2024-02-21T07:30:23;18.63;;;6.97;;
59300;SDS011;45073;52.740;6.784;2024-02-21T07:32:49;19.50;;;7.50;;
59300;SDS011;45073;52.740;6.784;2024-02-21T07:35:15;23.38;;;9.60;;
59300;SDS011;45073;52.740;6.784;2024-02-21T07:37:42;18.08;;;8.35;;
59300;SDS011;45073;52.740;6.784;2024-02-21T07:40:17;27.08;;;9.30;;
59300;SDS011;45073;52.740;6.784;2024-02-21T07:42:43;19.65;;;7.78;;
59300;SDS011;45073;52.740;6.784;2024-02-21T07:45:09;14.88;;;6.53;;
59300;SDS011;45073;52.740;6.784;2024-02-21T07:47:35;10.20;;;5.40;;
59300;SDS011;45073;52.740;6.784;2024-02-21T07:50:02;18.00;;;6.68;;
59300;SDS011;45073;52.740;6.784;2024-02-21T07:52:28;17.15;;;7.20;;
59300;SDS011;45073;52.740;6.784;2024-02-21T07:54:54;12.60;;;6.20;;
59300;SDS011;45073;52.740;6.784;2024-02-21T07:57:19;19.27;;;9.45;;
59300;SDS011;45073;52.740;6.784;2024-02-21T07:59:45;23.05;;;8.38;;
59300;SDS011;45073;52.740;6.784;2024-02-21T08:02:13;14.00;;;6.93;;
59300;SDS011;45073;52.740;6.784;2024-02-21T08:04:42;19.52;;;8.95;;
59300;SDS011;45073;52.740;6.784;2024-02-21T08:07:07;19.85;;;9.07;;
59300;SDS011;45073;52.740;6.784;2024-02-21T08:09:33;23.85;;;8.57;;
59300;SDS011;45073;52.740;6.784;2024-02-21T08:12:00;17.75;;;8.38;;
59300;SDS011;45073;52.740;6.784;2024-02-21T08:14:26;16.05;;;6.78;;
59300;SDS011;45073;52.740;6.784;2024-02-21T08:16:51;14.98;;;7.40;;
59300;SDS011;45073;52.740;6.784;2024-02-21T08:19:20;12.65;;;6.07;;
59300;SDS011;45073;52.740;6.784;2024-02-21T08:21:47;18.90;;;9.00;;
59300;SDS011;45073;52.740;6.784;2024-02-21T08:24:16;15.35;;;7.00;;
59300;SDS011;45073;52.740;6.784;2024-02-21T08:26:42;21.27;;;8.98;;
59300;SDS011;45073;52.740;6.784;2024-02-21T08:29:09;14.68;;;8.05;;
59300;SDS011;45073;52.740;6.784;2024-02-21T08:31:35;19.00;;;8.02;;
59300;SDS011;45073;52.740;6.784;2024-02-21T08:34:01;23.02;;;7.97;;
59300;SDS011;45073;52.740;6.784;2024-02-21T08:36:29;21.05;;;8.77;;
59300;SDS011;45073;52.740;6.784;2024-02-21T08:38:56;16.83;;;8.77;;
59300;SDS011;45073;52.740;6.784;2024-02-21T08:41:23;19.27;;;9.57;;
59300;SDS011;45073;52.740;6.784;2024-02-21T08:43:53;20.50;;;8.82;;
59300;SDS011;45073;52.740;6.784;2024-02-21T08:46:19;18.30;;;8.93;;
59300;SDS011;45073;52.740;6.784;2024-02-21T08:48:46;21.08;;;8.82;;
59300;SDS011;45073;52.740;6.784;2024-02-21T08:51:13;20.73;;;10.07;;
59300;SDS011;45073;52.740;6.784;2024-02-21T08:53:38;15.55;;;6.90;;
59300;SDS011;45073;52.740;6.784;2024-02-21T08:56:05;22.55;;;10.60;;
59300;SDS011;45073;52.740;6.784;2024-02-21T08:58:31;19.05;;;8.85;;
59300;SDS011;45073;52.740;6.784;2024-02-21T09:00:56;19.90;;;7.80;;
59300;SDS011;45073;52.740;6.784;2024-02-21T09:03:22;18.10;;;8.43;;
59300;SDS011;45073;52.740;6.784;2024-02-21T09:05:48;18.92;;;8.68;;
59300;SDS011;45073;52.740;6.784;2024-02-21T09:08:14;20.25;;;8.65;;
59300;SDS011;45073;52.740;6.784;2024-02-21T09:10:40;22.20;;;9.65;;
59300;SDS011;45073;52.740;6.784;2024-02-21T09:13:05;19.08;;;9.63;;
59300;SDS011;45073;52.740;6.784;2024-02-21T09:15:33;24.80;;;8.02;;
59300;SDS011;45073;52.740;6.784;2024-02-21T09:17:58;19.02;;;9.10;;
59300;SDS011;45073;52.740;6.784;2024-02-21T09:20:24;19.30;;;9.35;;
59300;SDS011;45073;52.740;6.784;2024-02-21T09:22:49;18.58;;;8.90;;
59300;SDS011;45073;52.740;6.784;2024-02-21T09:25:15;18.25;;;8.32;;
59300;SDS011;45073;52.740;6.784;2024-02-21T09:27:43;22.55;;;9.70;;
59300;SDS011;45073;52.740;6.784;2024-02-21T09:30:10;18.90;;;9.18;;
59300;SDS011;45073;52.740;6.784;2024-02-21T09:32:36;16.55;;;7.88;;
59300;SDS011;45073;52.740;6.784;2024-02-21T09:35:02;16.58;;;7.20;;
59300;SDS011;45073;52.740;6.784;2024-02-21T09:37:28;17.25;;;6.50;;
59300;SDS011;45073;52.740;6.784;2024-02-21T09:39:53;15.45;;;6.07;;
59300;SDS011;45073;52.740;6.784;2024-02-21T09:42:20;12.05;;;5.45;;
59300;SDS011;45073;52.740;6.784;2024-02-21T09:44:49;24.48;;;16.92;;
59300;SDS011;45073;52.740;6.784;2024-02-21T09:47:17;17.33;;;6.55;;
59300;SDS011;45073;52.740;6.784;2024-02-21T09:49:47;13.70;;;6.47;;
59300;SDS011;45073;52.740;6.784;2024-02-21T09:52:13;14.18;;;7.20;;
59300;SDS011;45073;52.740;6.784;2024-02-21T09:54:40;12.48;;;6.25;;
59300;SDS011;45073;52.740;6.784;2024-02-21T09:57:09;10.77;;;4.30;;
59300;SDS011;45073;52.740;6.784;2024-02-21T09:59:35;14.15;;;6.85;;
59300;SDS011;45073;52.740;6.784;2024-02-21T10:02:01;19.70;;;7.47;;
59300;SDS011;45073;52.740;6.784;2024-02-21T10:04:26;14.70;;;7.05;;
59300;SDS011;45073;52.740;6.784;2024-02-21T10:06:53;16.55;;;6.45;;
59300;SDS011;45073;52.740;6.784;2024-02-21T10:09:28;14.98;;;6.97;;
59300;SDS011;45073;52.740;6.784;2024-02-21T10:11:55;15.05;;;6.47;;
59300;SDS011;45073;52.740;6.784;2024-02-21T10:14:21;15.65;;;6.78;;
59300;SDS011;45073;52.740;6.784;2024-02-21T10:16:47;17.25;;;5.25;;
59300;SDS011;45073;52.740;6.784;2024-02-21T10:19:20;14.70;;;5.85;;
59300;SDS011;45073;52.740;6.784;2024-02-21T10:24:32;21.42;;;7.85;;
59300;SDS011;45073;52.740;6.784;2024-02-21T10:27:03;17.75;;;6.63;;
59300;SDS011;45073;52.740;6.784;2024-02-21T10:29:33;15.93;;;6.43;;
59300;SDS011;45073;52.740;6.784;2024-02-21T10:32:03;19.10;;;7.20;;
59300;SDS011;45073;52.740;6.784;2024-02-21T10:34:33;17.05;;;6.93;;
59300;SDS011;45073;52.740;6.784;2024-02-21T10:37:00;14.60;;;6.93;;
59300;SDS011;45073;52.740;6.784;2024-02-21T10:39:32;13.25;;;6.05;;
59300;SDS011;45073;52.740;6.784;2024-02-21T10:42:00;17.40;;;6.25;;
59300;SDS011;45073;52.740;6.784;2024-02-21T10:44:30;11.60;;;4.60;;
59300;SDS011;45073;52.740;6.784;2024-02-21T10:47:03;14.90;;;6.60;;
59300;SDS011;45073;52.740;6.784;2024-02-21T10:52:14;8.90;;;4.43;;
59300;SDS011;45073;52.740;6.784;2024-02-21T10:55:03;16.10;;;5.82;;
59300;SDS011;45073;52.740;6.784;2024-02-21T10:57:34;14.57;;;6.05;;
59300;SDS011;45073;52.740;6.784;2024-02-21T11:00:03;14.75;;;5.85;;
59300;SDS011;45073;52.740;6.784;2024-02-21T11:02:33;15.52;;;5.97;;
59300;SDS011;45073;52.740;6.784;2024-02-21T11:04:59;8.52;;;3.97;;
59300;SDS011;45073;52.740;6.784;2024-02-21T11:07:28;12.85;;;5.00;;
59300;SDS011;45073;52.740;6.784;2024-02-21T11:09:55;9.65;;;3.45;;
59300;SDS011;45073;52.740;6.784;2024-02-21T11:12:21;13.85;;;5.57;;
59300;SDS011;45073;52.740;6.784;2024-02-21T11:14:47;14.02;;;4.95;;
59300;SDS011;45073;52.740;6.784;2024-02-21T11:17:16;10.77;;;4.70;;
59300;SDS011;45073;52.740;6.784;2024-02-21T11:19:43;10.88;;;5.85;;
59300;SDS011;45073;52.740;6.784;2024-02-21T11:22:18;13.65;;;6.75;;
59300;SDS011;45073;52.740;6.784;2024-02-21T11:24:49;16.38;;;6.30;;
59300;SDS011;45073;52.740;6.784;2024-02-21T11:27:15;22.02;;;5.47;;
59300;SDS011;45073;52.740;6.784;2024-02-21T11:29:49;10.68;;;4.20;;
59300;SDS011;45073;52.740;6.784;2024-02-21T11:32:19;12.23;;;4.30;;
59300;SDS011;45073;52.740;6.784;2024-02-21T11:37:29;14.23;;;5.82;;
59300;SDS011;45073;52.740;6.784;2024-02-21T11:39:58;12.18;;;5.22;;
59300;SDS011;45073;52.740;6.784;2024-02-21T11:42:24;9.30;;;3.97;;
59300;SDS011;45073;52.740;6.784;2024-02-21T11:44:51;12.73;;;4.63;;
59300;SDS011;45073;52.740;6.784;2024-02-21T11:47:17;11.15;;;4.50;;
59300;SDS011;45073;52.740;6.784;2024-02-21T11:49:47;12.43;;;4.43;;
59300;SDS011;45073;52.740;6.784;2024-02-21T11:52:19;11.20;;;4.43;;
59300;SDS011;45073;52.740;6.784;2024-02-21T11:54:47;9.98;;;3.97;;
59300;SDS011;45073;52.740;6.784;2024-02-21T11:57:13;15.55;;;4.32;;
59300;SDS011;45073;52.740;6.784;2024-02-21T11:59:40;8.93;;;4.03;;
59300;SDS011;45073;52.740;6.784;2024-02-21T12:02:06;13.32;;;5.32;;
59300;SDS011;45073;52.740;6.784;2024-02-21T12:04:32;10.52;;;4.15;;
59300;SDS011;45073;52.740;6.784;2024-02-21T12:06:58;10.13;;;3.90;;
59300;SDS011;45073;52.740;6.784;2024-02-21T12:09:24;13.98;;;5.00;;
59300;SDS011;45073;52.740;6.784;2024-02-21T12:12:03;11.90;;;4.20;;
59300;SDS011;45073;52.740;6.784;2024-02-21T12:14:30;10.43;;;4.57;;
59300;SDS011;45073;52.740;6.784;2024-02-21T12:16:57;11.55;;;4.55;;
59300;SDS011;45073;52.740;6.784;2024-02-21T12:19:23;11.63;;;4.60;;
59300;SDS011;45073;52.740;6.784;2024-02-21T12:21:49;10.27;;;3.63;;
59300;SDS011;45073;52.740;6.784;2024-02-21T12:24:28;9.18;;;4.22;;
59300;SDS011;45073;52.740;6.784;2024-02-21T12:26:54;9.25;;;3.47;;
59300;SDS011;45073;52.740;6.784;2024-02-21T12:29:21;10.07;;;4.15;;
59300;SDS011;45073;52.740;6.784;2024-02-21T12:31:50;10.23;;;3.80;;
59300;SDS011;45073;52.740;6.784;2024-02-21T12:34:17;6.85;;;2.78;;
59300;SDS011;45073;52.740;6.784;2024-02-21T12:36:43;7.10;;;3.00;;
59300;SDS011;45073;52.740;6.784;2024-02-21T12:39:11;7.45;;;2.72;;
59300;SDS011;45073;52.740;6.784;2024-02-21T12:41:37;7.97;;;2.70;;
59300;SDS011;45073;52.740;6.784;2024-02-21T12:44:07;6.65;;;2.38;;
59300;SDS011;45073;52.740;6.784;2024-02-21T12:46:33;7.20;;;2.22;;
59300;SDS011;45073;52.740;6.784;2024-02-21T12:48:59;5.03;;;1.67;;
59300;SDS011;45073;52.740;6.784;2024-02-21T12:51:25;6.20;;;2.83;;
59300;SDS011;45073;52.740;6.784;2024-02-21T12:53:51;8.45;;;2.83;;
59300;SDS011;45073;52.740;6.784;2024-02-21T12:56:17;7.32;;;2.75;;
59300;SDS011;45073;52.740;6.784;2024-02-21T12:58:42;7.32;;;2.60;;
59300;SDS011;45073;52.740;6.784;2024-02-21T13:01:08;5.95;;;2.25;;
59300;SDS011;45073;52.740;6.784;2024-02-21T13:03:34;6.38;;;2.42;;
59300;SDS011;45073;52.740;6.784;2024-02-21T13:06:00;8.43;;;2.72;;
59300;SDS011;45073;52.740;6.784;2024-02-21T13:08:25;9.80;;;2.42;;
59300;SDS011;45073;52.740;6.784;2024-02-21T13:10:51;6.82;;;2.33;;
59300;SDS011;45073;52.740;6.784;2024-02-21T13:13:16;6.50;;;2.28;;
59300;SDS011;45073;52.740;6.784;2024-02-21T13:15:42;5.63;;;2.33;;
59300;SDS011;45073;52.740;6.784;2024-02-21T13:18:08;7.65;;;2.97;;
59300;SDS011;45073;52.740;6.784;2024-02-21T13:20:35;9.95;;;3.67;;
59300;SDS011;45073;52.740;6.784;2024-02-21T13:23:01;9.55;;;4.20;;
59300;SDS011;45073;52.740;6.784;2024-02-21T13:25:27;6.97;;;2.70;;
59300;SDS011;45073;52.740;6.784;2024-02-21T13:27:53;11.63;;;4.20;;
59300;SDS011;45073;52.740;6.784;2024-02-21T13:30:18;8.50;;;3.67;;
59300;SDS011;45073;52.740;6.784;2024-02-21T13:32:44;10.57;;;4.05;;
59300;SDS011;45073;52.740;6.784;2024-02-21T13:35:13;8.88;;;3.13;;
59300;SDS011;45073;52.740;6.784;2024-02-21T13:37:40;10.95;;;3.40;;
59300;SDS011;45073;52.740;6.784;2024-02-21T13:40:06;11.63;;;3.47;;
59300;SDS011;45073;52.740;6.784;2024-02-21T13:42:36;10.43;;;2.97;;
59300;SDS011;45073;52.740;6.784;2024-02-21T13:45:03;11.38;;;3.22;;
59300;SDS011;45073;52.740;6.784;2024-02-21T13:47:30;7.53;;;3.58;;
59300;SDS011;45073;52.740;6.784;2024-02-21T13:49:56;9.48;;;3.53;;
59300;SDS011;45073;52.740;6.784;2024-02-21T13:52:22;10.75;;;3.50;;
59300;SDS011;45073;52.740;6.784;2024-02-21T13:54:47;12.57;;;3.90;;
59300;SDS011;45073;52.740;6.784;2024-02-21T13:57:13;10.10;;;3.75;;
59300;SDS011;45073;52.740;6.784;2024-02-21T13:59:41;9.02;;;3.47;;
59300;SDS011;45073;52.740;6.784;2024-02-21T14:02:07;11.38;;;4.20;;
59300;SDS011;45073;52.740;6.784;2024-02-21T14:04:33;9.00;;;3.42;;
59300;SDS011;45073;52.740;6.784;2024-02-21T14:06:59;11.07;;;3.67;;
59300;SDS011;45073;52.740;6.784;2024-02-21T14:09:25;10.68;;;3.80;;
59300;SDS011;45073;52.740;6.784;2024-02-21T14:11:51;10.05;;;2.88;;
59300;SDS011;45073;52.740;6.784;2024-02-21T14:14:17;10.50;;;3.45;;
59300;SDS011;45073;52.740;6.784;2024-02-21T14:16:43;10.63;;;3.97;;
59300;SDS011;45073;52.740;6.784;2024-02-21T14:19:08;9.93;;;3.97;;
59300;SDS011;45073;52.740;6.784;2024-02-21T14:21:35;11.43;;;3.72;;
59300;SDS011;45073;52.740;6.784;2024-02-21T14:24:02;14.02;;;4.20;;
59300;SDS011;45073;52.740;6.784;2024-02-21T14:26:29;12.15;;;3.90;;
59300;SDS011;45073;52.740;6.784;2024-02-21T14:28:56;10.93;;;4.13;;
59300;SDS011;45073;52.740;6.784;2024-02-21T14:31:24;9.65;;;4.00;;
59300;SDS011;45073;52.740;6.784;2024-02-21T14:33:50;9.10;;;3.15;;
59300;SDS011;45073;52.740;6.784;2024-02-21T14:36:16;9.07;;;3.80;;
59300;SDS011;45073;52.740;6.784;2024-02-21T14:38:42;9.15;;;3.33;;
59300;SDS011;45073;52.740;6.784;2024-02-21T14:41:09;10.20;;;3.00;;
59300;SDS011;45073;52.740;6.784;2024-02-21T14:43:37;10.88;;;4.18;;